Time;durP1;ratioP1;P1;durP2;ratioP2;P2;SDS_P1;SDS_P2;PMS_P1;PMS_P2;Temp;Humidity;BMP_temperature;BMP_pressure;BME280_temperature;BME280_humidity;BME280_pressure;Samples;Min_cycle;Max_cycle;Signal;HPM_P1;HPM_P2
2023/05/14 00:02:14;;;;;;;3.47;3.03;;;;;;;;;;5052347;28;20193;-29
2023/05/14 00:04:41;;;;;;;3.43;3.23;;;;;;;;;;5062789;28;20277;-28
2023/05/14 00:07:08;;;;;;;3.97;3.47;;;;;;;;;;5051946;28;20233;-28
2023/05/14 00:09:35;;;;;;;3.20;2.77;;;;;;;;;;5043877;28;20225;-29
2023/05/14 00:12:04;;;;;;;3.30;3.00;;;;;;;;;;5056810;28;20221;-27
2023/05/14 00:14:31;;;;;;;3.13;2.83;;;;;;;;;;5060990;28;20285;-30
2023/05/14 00:17:05;;;;;;;3.20;3.00;;;;;;;;;;5461279;22;20240;-29
2023/05/14 00:19:50;;;;;;;3.80;3.10;;;;;;;;;;5088674;28;20197;-29
2023/05/14 00:25:15;;;;;;;2.80;2.60;;;;;;;;;;5057574;28;20263;-28
2023/05/14 00:27:53;;;;;;;2.93;2.70;;;;;;;;;;5044209;28;20203;-27
2023/05/14 00:30:26;;;;;;;2.97;2.77;;;;;;;;;;5048427;28;20214;-29
2023/05/14 00:33:05;;;;;;;4.23;2.90;;;;;;;;;;5066829;28;20229;-29
2023/05/14 00:38:27;;;;;;;2.87;2.67;;;;;;;;;;5317771;22;20298;-28
2023/05/14 00:41:09;;;;;;;3.47;2.93;;;;;;;;;;5078902;28;20212;-30
2023/05/14 00:43:52;;;;;;;4.57;2.93;;;;;;;;;;5074729;28;20261;-29
2023/05/14 00:46:28;;;;;;;2.77;2.57;;;;;;;;;;5065140;28;20218;-28
2023/05/14 00:49:01;;;;;;;3.33;3.00;;;;;;;;;;5072855;28;20243;-26
2023/05/14 00:51:28;;;;;;;2.77;2.57;;;;;;;;;;5065563;22;20250;-27
2023/05/14 00:53:55;;;;;;;4.40;3.07;;;;;;;;;;5022602;28;20211;-26
2023/05/14 00:56:23;;;;;;;2.90;2.70;;;;;;;;;;5022365;28;20251;-28
2023/05/14 00:58:52;;;;;;;2.87;2.67;;;;;;;;;;5011447;28;20205;-25
2023/05/14 01:01:19;;;;;;;3.40;2.80;;;;;;;;;;5005116;28;20203;-28
2023/05/14 01:03:46;;;;;;;3.10;2.90;;;;;;;;;;5009655;28;20207;-30
2023/05/14 01:06:16;;;;;;;2.90;2.63;;;;;;;;;;5010262;28;20227;-28
2023/05/14 01:08:47;;;;;;;2.90;2.70;;;;;;;;;;5006382;28;20216;-29
2023/05/14 01:11:18;;;;;;;3.27;2.97;;;;;;;;;;5006712;28;20199;-29
2023/05/14 01:13:51;;;;;;;2.80;2.60;;;;;;;;;;5030371;28;20205;-27
2023/05/14 01:16:20;;;;;;;2.90;2.70;;;;;;;;;;5008574;28;20229;-30
2023/05/14 01:18:49;;;;;;;2.73;2.50;;;;;;;;;;5025985;28;20507;-27
2023/05/14 01:21:25;;;;;;;3.20;2.90;;;;;;;;;;5010816;28;20257;-28
2023/05/14 01:23:52;;;;;;;3.30;2.70;;;;;;;;;;5003291;28;20214;-30
2023/05/14 01:26:20;;;;;;;2.67;2.47;;;;;;;;;;5023798;28;20229;-27
2023/05/14 01:28:48;;;;;;;2.87;2.63;;;;;;;;;;5012236;28;20214;-28
2023/05/14 01:31:19;;;;;;;2.83;2.63;;;;;;;;;;5002807;28;20204;-29
2023/05/14 01:33:48;;;;;;;3.93;2.70;;;;;;;;;;5018963;28;20313;-29
2023/05/14 01:36:15;;;;;;;2.80;2.60;;;;;;;;;;5030164;28;20231;-26
2023/05/14 01:38:46;;;;;;;3.37;2.73;;;;;;;;;;5022481;28;20222;-29
2023/05/14 01:41:13;;;;;;;2.73;2.53;;;;;;;;;;5003940;28;20240;-30
2023/05/14 01:43:41;;;;;;;2.63;2.43;;;;;;;;;;5010440;28;20211;-25
2023/05/14 01:46:08;;;;;;;2.67;2.47;;;;;;;;;;5001369;28;20239;-29
2023/05/14 01:48:36;;;;;;;3.03;2.83;;;;;;;;;;5008714;28;20207;-25
2023/05/14 01:51:03;;;;;;;3.37;3.00;;;;;;;;;;4991469;28;20217;-30
2023/05/14 01:53:33;;;;;;;3.47;3.13;;;;;;;;;;4991555;28;20231;-25
2023/05/14 01:56:01;;;;;;;7.70;3.07;;;;;;;;;;5009253;28;20308;-30
2023/05/14 01:58:28;;;;;;;2.90;2.50;;;;;;;;;;5017980;28;20199;-30
2023/05/14 02:00:56;;;;;;;2.63;2.43;;;;;;;;;;5003113;28;20242;-28
2023/05/14 02:03:23;;;;;;;3.33;3.03;;;;;;;;;;5025938;28;20206;-26
2023/05/14 02:05:51;;;;;;;3.30;3.00;;;;;;;;;;5011462;28;20223;-28
2023/05/14 02:08:18;;;;;;;3.37;2.60;;;;;;;;;;5007541;28;20296;-26
2023/05/14 02:10:45;;;;;;;3.93;3.10;;;;;;;;;;5001879;28;20216;-29
2023/05/14 02:13:13;;;;;;;5.10;3.10;;;;;;;;;;5022299;28;20230;-30
2023/05/14 02:15:40;;;;;;;3.50;3.20;;;;;;;;;;5013805;28;20232;-30
2023/05/14 02:18:07;;;;;;;3.07;2.77;;;;;;;;;;5011933;28;20298;-27
2023/05/14 02:20:34;;;;;;;3.43;2.57;;;;;;;;;;5013661;28;20200;-27
2023/05/14 02:23:02;;;;;;;3.40;3.10;;;;;;;;;;5003491;28;20211;-27
2023/05/14 02:25:29;;;;;;;3.53;3.23;;;;;;;;;;5004010;28;20230;-28
2023/05/14 02:27:56;;;;;;;4.37;3.20;;;;;;;;;;5009692;28;20265;-28
2023/05/14 02:30:24;;;;;;;3.20;2.90;;;;;;;;;;5001863;28;20215;-28
2023/05/14 02:32:51;;;;;;;3.60;3.30;;;;;;;;;;5023973;28;20229;-26
2023/05/14 02:35:18;;;;;;;3.07;2.87;;;;;;;;;;5009450;28;20227;-27
2023/05/14 02:37:45;;;;;;;3.03;2.83;;;;;;;;;;5005840;28;20216;-26
2023/05/14 02:40:13;;;;;;;3.20;2.90;;;;;;;;;;5008097;28;20203;-30
2023/05/14 02:42:40;;;;;;;3.10;2.90;;;;;;;;;;5017655;28;20210;-29
2023/05/14 02:45:07;;;;;;;2.87;2.67;;;;;;;;;;5002718;28;20207;-31
2023/05/14 02:47:36;;;;;;;2.90;2.70;;;;;;;;;;5011435;28;20195;-27
2023/05/14 02:50:05;;;;;;;4.70;3.10;;;;;;;;;;5017841;28;20204;-26
2023/05/14 02:52:32;;;;;;;3.50;3.20;;;;;;;;;;5011721;28;20224;-28
2023/05/14 02:54:59;;;;;;;3.33;3.03;;;;;;;;;;5005125;28;20199;-29
2023/05/14 02:57:26;;;;;;;4.67;3.20;;;;;;;;;;5011683;28;20203;-26
2023/05/14 02:59:53;;;;;;;3.77;3.20;;;;;;;;;;5018263;28;20200;-28
2023/05/14 03:02:20;;;;;;;3.20;3.00;;;;;;;;;;5017283;28;20231;-29
2023/05/14 03:04:49;;;;;;;3.00;2.80;;;;;;;;;;5012404;28;20203;-30
2023/05/14 03:07:16;;;;;;;3.40;3.10;;;;;;;;;;5011597;28;20208;-32
2023/05/14 03:09:43;;;;;;;3.23;3.03;;;;;;;;;;5008800;28;20265;-28
2023/05/14 03:12:11;;;;;;;3.07;2.87;;;;;;;;;;5025622;28;20195;-32
2023/05/14 03:14:38;;;;;;;3.60;3.27;;;;;;;;;;5025556;28;20656;-30
2023/05/14 03:17:05;;;;;;;3.93;3.47;;;;;;;;;;5014871;28;20230;-30
2023/05/14 03:19:32;;;;;;;3.43;3.20;;;;;;;;;;5017020;28;20227;-25
2023/05/14 03:22:01;;;;;;;5.63;3.10;;;;;;;;;;5013412;28;20202;-30
2023/05/14 03:24:28;;;;;;;3.27;3.07;;;;;;;;;;5005386;28;20207;-30
2023/05/14 03:26:55;;;;;;;3.87;2.90;;;;;;;;;;5027790;28;20233;-28
2023/05/14 03:29:22;;;;;;;3.37;3.13;;;;;;;;;;5010714;28;20211;-31
2023/05/14 03:31:49;;;;;;;4.13;3.37;;;;;;;;;;5005736;28;20597;-27
2023/05/14 03:34:17;;;;;;;4.47;3.23;;;;;;;;;;5023963;28;20230;-29
2023/05/14 03:36:44;;;;;;;4.10;3.50;;;;;;;;;;5032538;28;20233;-27
2023/05/14 03:39:14;;;;;;;5.83;3.10;;;;;;;;;;5024321;28;20215;-29
2023/05/14 03:41:41;;;;;;;3.10;2.90;;;;;;;;;;5012178;28;20306;-28
2023/05/14 03:44:08;;;;;;;3.53;3.23;;;;;;;;;;5011773;28;20196;-27
2023/05/14 03:46:35;;;;;;;4.03;3.13;;;;;;;;;;5009446;28;20228;-30
2023/05/14 03:49:02;;;;;;;3.00;2.80;;;;;;;;;;5023643;28;20210;-26
2023/05/14 03:51:30;;;;;;;3.50;3.20;;;;;;;;;;5032026;28;20215;-26
2023/05/14 03:53:57;;;;;;;3.67;2.87;;;;;;;;;;5006153;28;20234;-30
2023/05/14 03:56:26;;;;;;;2.93;2.73;;;;;;;;;;5010099;28;20218;-28
2023/05/14 03:58:53;;;;;;;3.47;3.17;;;;;;;;;;5031865;28;20207;-29
2023/05/14 04:01:20;;;;;;;2.80;2.57;;;;;;;;;;5018109;28;20214;-29
2023/05/14 04:03:47;;;;;;;4.00;3.00;;;;;;;;;;5010107;28;20294;-29
2023/05/14 04:06:15;;;;;;;3.80;3.50;;;;;;;;;;5012434;28;20325;-27
2023/05/14 04:08:42;;;;;;;4.07;3.17;;;;;;;;;;5008888;28;20235;-28
2023/05/14 04:11:09;;;;;;;3.93;3.30;;;;;;;;;;5020045;28;20211;-27
2023/05/14 04:13:37;;;;;;;3.43;3.13;;;;;;;;;;5023048;28;20219;-29
2023/05/14 04:16:05;;;;;;;3.03;2.83;;;;;;;;;;5011602;28;20214;-27
2023/05/14 04:18:34;;;;;;;3.23;2.97;;;;;;;;;;5015633;28;20203;-30
2023/05/14 04:21:01;;;;;;;3.43;2.90;;;;;;;;;;5033589;28;20207;-28
2023/05/14 04:23:28;;;;;;;2.87;2.67;;;;;;;;;;5021160;28;20198;-31
2023/05/14 04:25:55;;;;;;;4.57;3.00;;;;;;;;;;5007222;28;20227;-27
2023/05/14 04:28:22;;;;;;;4.07;3.67;;;;;;;;;;5028311;28;20200;-24
2023/05/14 04:30:51;;;;;;;3.20;2.87;;;;;;;;;;5014413;28;20668;-27
2023/05/14 04:33:18;;;;;;;3.40;2.80;;;;;;;;;;5017204;28;20219;-27
2023/05/14 04:35:45;;;;;;;3.83;3.10;;;;;;;;;;5012872;28;20235;-27
2023/05/14 04:38:13;;;;;;;4.13;3.23;;;;;;;;;;5007100;28;20392;-29
2023/05/14 04:40:40;;;;;;;4.13;3.07;;;;;;;;;;5016259;28;20319;-28
2023/05/14 04:43:07;;;;;;;3.73;3.43;;;;;;;;;;5026211;28;20199;-29
2023/05/14 04:45:34;;;;;;;4.50;2.83;;;;;;;;;;5020738;28;20294;-30
2023/05/14 04:48:03;;;;;;;3.50;3.20;;;;;;;;;;5004359;28;20207;-27
2023/05/14 04:50:30;;;;;;;3.23;3.00;;;;;;;;;;5029295;28;20198;-28
2023/05/14 04:52:57;;;;;;;2.97;2.77;;;;;;;;;;5021172;28;20224;-26
2023/05/14 04:55:24;;;;;;;3.60;3.30;;;;;;;;;;5007877;28;20211;-25
2023/05/14 04:57:52;;;;;;;3.57;3.27;;;;;;;;;;5012256;28;20206;-29
2023/05/14 05:00:20;;;;;;;2.70;2.50;;;;;;;;;;5007516;28;20215;-29
2023/05/14 05:02:47;;;;;;;3.30;3.07;;;;;;;;;;5023484;28;20213;-28
2023/05/14 05:05:16;;;;;;;3.53;3.10;;;;;;;;;;5013550;28;20219;-26
2023/05/14 05:07:43;;;;;;;3.13;2.93;;;;;;;;;;5013641;28;20211;-27
2023/05/14 05:10:10;;;;;;;3.77;3.17;;;;;;;;;;5013867;28;20199;-26
2023/05/14 05:12:37;;;;;;;3.83;3.30;;;;;;;;;;5022385;28;20205;-27
2023/05/14 05:15:04;;;;;;;3.70;3.40;;;;;;;;;;5022938;28;20209;-27
2023/05/14 05:17:31;;;;;;;3.40;3.10;;;;;;;;;;5010751;28;20227;-25
2023/05/14 05:19:58;;;;;;;2.93;2.73;;;;;;;;;;5024170;28;20199;-26
2023/05/14 05:22:27;;;;;;;3.43;2.73;;;;;;;;;;5032972;28;20206;-26
2023/05/14 05:24:54;;;;;;;3.60;3.30;;;;;;;;;;5017557;28;20199;-26
2023/05/14 05:27:21;;;;;;;3.80;3.23;;;;;;;;;;5009108;28;20221;-27
2023/05/14 05:29:49;;;;;;;3.70;3.40;;;;;;;;;;5026247;28;20196;-29
2023/05/14 05:32:16;;;;;;;4.20;3.70;;;;;;;;;;5011459;28;20210;-26
2023/05/14 05:34:43;;;;;;;3.77;3.47;;;;;;;;;;5030915;28;20218;-26
2023/05/14 05:37:12;;;;;;;3.87;3.57;;;;;;;;;;5031650;28;20211;-28
2023/05/14 05:39:40;;;;;;;5.77;4.10;;;;;;;;;;4998752;28;20208;-26
2023/05/14 05:42:08;;;;;;;6.80;4.23;;;;;;;;;;5025377;28;20206;-26
2023/05/14 05:44:35;;;;;;;4.40;4.00;;;;;;;;;;5027032;28;20199;-26
2023/05/14 05:47:02;;;;;;;4.40;4.00;;;;;;;;;;5016762;28;20219;-27
2023/05/14 05:49:29;;;;;;;4.77;4.27;;;;;;;;;;5021374;28;20196;-29
2023/05/14 05:51:56;;;;;;;4.70;4.00;;;;;;;;;;5012893;28;20234;-29
2023/05/14 05:54:24;;;;;;;4.00;3.60;;;;;;;;;;5013003;28;20219;-28
2023/05/14 05:56:55;;;;;;;3.90;3.60;;;;;;;;;;5013216;28;20517;-31
2023/05/14 05:59:22;;;;;;;3.90;3.60;;;;;;;;;;5011811;28;20222;-28
2023/05/14 06:01:49;;;;;;;3.70;3.40;;;;;;;;;;5013621;28;20203;-32
2023/05/14 06:04:16;;;;;;;5.07;4.27;;;;;;;;;;5019122;28;20206;-30
2023/05/14 06:06:43;;;;;;;4.37;3.97;;;;;;;;;;5012909;28;20233;-30
2023/05/14 06:09:11;;;;;;;4.00;3.70;;;;;;;;;;5006668;28;20198;-27
2023/05/14 06:11:38;;;;;;;5.13;4.63;;;;;;;;;;5012729;28;20195;-30
2023/05/14 06:14:06;;;;;;;6.83;4.10;;;;;;;;;;5012283;28;20226;-29
2023/05/14 06:16:33;;;;;;;5.07;4.50;;;;;;;;;;5005341;28;20226;-27
2023/05/14 06:19:00;;;;;;;6.60;4.47;;;;;;;;;;5020417;28;20201;-27
2023/05/14 06:21:28;;;;;;;5.23;4.73;;;;;;;;;;5012773;28;20201;-31
2023/05/14 06:23:55;;;;;;;5.77;4.00;;;;;;;;;;5002533;28;20235;-27
2023/05/14 06:26:22;;;;;;;7.00;5.10;;;;;;;;;;5007367;28;20221;-27
2023/05/14 06:28:49;;;;;;;5.20;4.73;;;;;;;;;;5016707;28;20200;-29
2023/05/14 06:31:18;;;;;;;4.47;4.07;;;;;;;;;;5012913;28;20196;-30
2023/05/14 06:33:45;;;;;;;5.13;4.20;;;;;;;;;;5023431;28;20226;-29
2023/05/14 06:36:12;;;;;;;6.33;5.13;;;;;;;;;;5016297;28;20229;-30
2023/05/14 06:38:39;;;;;;;5.70;5.10;;;;;;;;;;5007664;28;20200;-33
2023/05/14 06:41:09;;;;;;;6.33;5.03;;;;;;;;;;5001268;28;20192;-29
2023/05/14 06:43:36;;;;;;;4.90;4.40;;;;;;;;;;5023702;28;20201;-28
2023/05/14 06:46:03;;;;;;;5.40;4.90;;;;;;;;;;5016753;28;20214;-29
2023/05/14 06:48:32;;;;;;;6.17;5.57;;;;;;;;;;5018916;28;20195;-30
2023/05/14 06:50:59;;;;;;;5.37;4.87;;;;;;;;;;5016398;28;20281;-31
2023/05/14 06:53:33;;;;;;;7.80;5.33;;;;;;;;;;5406560;22;20249;-30
2023/05/14 06:56:09;;;;;;;6.40;5.60;;;;;;;;;;5028022;28;20222;-27
2023/05/14 06:58:41;;;;;;;6.07;5.47;;;;;;;;;;5037852;28;20226;-29
2023/05/14 07:01:11;;;;;;;5.77;5.17;;;;;;;;;;5025511;28;20195;-28
2023/05/14 07:03:51;;;;;;;5.17;4.67;;;;;;;;;;5027611;28;20205;-28
2023/05/14 07:06:47;;;;;;;4.73;4.33;;;;;;;;;;4997973;28;20238;-28
2023/05/14 07:09:21;;;;;;;8.07;6.00;;;;;;;;;;5016031;28;20230;-32
2023/05/14 07:11:58;;;;;;;5.80;5.10;;;;;;;;;;5037082;28;20206;-31
2023/05/14 07:14:33;;;;;;;5.17;4.67;;;;;;;;;;5035088;28;20272;-31
2023/05/14 07:17:09;;;;;;;7.00;6.10;;;;;;;;;;5029061;28;20268;-33
2023/05/14 07:19:58;;;;;;;6.43;5.80;;;;;;;;;;5036961;28;20198;-29
2023/05/14 07:22:36;;;;;;;6.13;5.27;;;;;;;;;;5036774;28;20236;-30
2023/05/14 07:25:20;;;;;;;8.43;5.63;;;;;;;;;;5028020;28;20237;-32
2023/05/14 07:27:53;;;;;;;8.83;6.47;;;;;;;;;;5028792;28;20203;-30
2023/05/14 07:33:08;;;;;;;6.43;5.50;;;;;;;;;;5034685;28;20202;-29
2023/05/14 07:35:44;;;;;;;8.63;6.30;;;;;;;;;;5036269;28;20233;-31
2023/05/14 07:38:42;;;;;;;6.77;6.07;;;;;;;;;;5025989;28;20199;-29
2023/05/14 07:41:13;;;;;;;10.40;6.43;;;;;;;;;;5024446;28;20211;-29
2023/05/14 07:43:48;;;;;;;6.60;5.97;;;;;;;;;;5035548;28;20196;-30
2023/05/14 07:46:33;;;;;;;8.30;6.70;;;;;;;;;;5029628;28;20225;-28
2023/05/14 07:49:04;;;;;;;7.53;6.70;;;;;;;;;;5035831;28;20232;-28
2023/05/14 07:51:37;;;;;;;9.40;7.80;;;;;;;;;;5035912;28;20230;-27
2023/05/14 07:54:15;;;;;;;7.03;6.27;;;;;;;;;;5032772;28;20222;-29
2023/05/14 07:57:09;;;;;;;7.63;6.93;;;;;;;;;;5031774;28;20296;-31
2023/05/14 07:59:47;;;;;;;9.33;7.07;;;;;;;;;;5034195;28;20282;-30
2023/05/14 08:02:19;;;;;;;8.60;7.67;;;;;;;;;;5022777;28;20199;-30
2023/05/14 08:04:56;;;;;;;9.07;7.07;;;;;;;;;;5024660;28;20189;-30
2023/05/14 08:07:35;;;;;;;7.93;6.53;;;;;;;;;;5035789;28;20213;-30
2023/05/14 08:10:08;;;;;;;9.10;7.17;;;;;;;;;;5024768;28;20312;-31
2023/05/14 08:12:41;;;;;;;8.27;7.07;;;;;;;;;;5016393;28;20212;-31
2023/05/14 08:15:16;;;;;;;8.27;7.30;;;;;;;;;;5018925;28;20227;-29
2023/05/14 08:17:48;;;;;;;7.97;7.17;;;;;;;;;;5031808;28;20256;-28
2023/05/14 08:20:18;;;;;;;9.07;6.90;;;;;;;;;;5035248;28;20196;-29
2023/05/14 08:22:58;;;;;;;7.50;6.53;;;;;;;;;;5035544;28;20210;-31
2023/05/14 08:25:36;;;;;;;7.33;6.60;;;;;;;;;;5024176;28;20215;-31
2023/05/14 08:28:11;;;;;;;10.47;7.13;;;;;;;;;;5018773;28;20376;-30
2023/05/14 08:30:47;;;;;;;8.60;7.00;;;;;;;;;;5025026;28;20221;-31
2023/05/14 08:33:23;;;;;;;7.73;6.10;;;;;;;;;;5025583;28;20202;-32
2023/05/14 08:35:55;;;;;;;8.60;6.23;;;;;;;;;;5034753;28;20218;-28
2023/05/14 08:38:40;;;;;;;8.00;6.63;;;;;;;;;;5026166;28;20206;-30
2023/05/14 08:41:27;;;;;;;7.10;6.40;;;;;;;;;;5023165;28;20257;-27
2023/05/14 08:44:15;;;;;;;7.17;5.67;;;;;;;;;;5035073;28;20236;-28
2023/05/14 08:52:21;;;;;;;7.70;6.50;;;;;;;;;;5034474;28;20199;-34
2023/05/14 08:55:17;;;;;;;6.13;5.53;;;;;;;;;;5039041;28;20222;-38
2023/05/14 08:58:27;;;;;;;7.07;6.20;;;;;;;;;;5015322;28;20199;-35
2023/05/14 09:01:03;;;;;;;7.10;6.10;;;;;;;;;;5024042;28;21485;-30
2023/05/14 09:03:40;;;;;;;9.67;7.30;;;;;;;;;;5033933;28;20206;-34
2023/05/14 09:06:19;;;;;;;6.47;5.53;;;;;;;;;;5013863;28;20308;-32
2023/05/14 09:09:01;;;;;;;8.27;6.63;;;;;;;;;;5016154;28;20270;-33
2023/05/14 09:16:59;;;;;;;6.50;5.47;;;;;;;;;;5030934;28;20241;-30
2023/05/14 09:19:47;;;;;;;6.83;6.13;;;;;;;;;;5039954;28;20206;-26
2023/05/14 09:22:35;;;;;;;6.70;6.10;;;;;;;;;;5052772;28;20375;-27
2023/05/14 09:25:12;;;;;;;6.43;5.20;;;;;;;;;;5032418;28;20217;-28
2023/05/14 09:27:44;;;;;;;8.80;5.57;;;;;;;;;;5046257;28;20213;-28
2023/05/14 09:30:21;;;;;;;5.80;5.30;;;;;;;;;;5029742;28;20265;-26
2023/05/14 09:32:59;;;;;;;5.80;5.20;;;;;;;;;;5043042;28;20292;-29
2023/05/14 09:35:31;;;;;;;7.00;5.53;;;;;;;;;;5053649;28;20256;-28
2023/05/14 09:41:02;;;;;;;5.47;4.97;;;;;;;;;;5037715;28;20202;-28
2023/05/14 09:43:45;;;;;;;6.73;5.67;;;;;;;;;;5052816;28;20277;-27
2023/05/14 09:46:14;;;;;;;6.07;4.97;;;;;;;;;;5030227;28;20246;-27
2023/05/14 09:55:16;;;;;;;5.97;5.33;;;;;;;;;;5023549;28;20309;-28
2023/05/14 09:58:18;;;;;;;5.57;4.53;;;;;;;;;;5031742;28;20213;-26
2023/05/14 10:00:56;;;;;;;5.53;4.90;;;;;;;;;;5029340;28;20238;-27
2023/05/14 10:03:35;;;;;;;5.80;4.23;;;;;;;;;;5037102;28;20209;-27
2023/05/14 10:06:15;;;;;;;6.93;5.13;;;;;;;;;;5053191;28;20220;-27
2023/05/14 10:08:58;;;;;;;5.47;4.97;;;;;;;;;;5028192;28;20258;-25
2023/05/14 10:11:40;;;;;;;5.83;4.77;;;;;;;;;;5043293;28;20260;-25
2023/05/14 10:17:16;;;;;;;5.40;4.90;;;;;;;;;;5025328;28;20235;-27
2023/05/14 10:20:05;;;;;;;5.57;4.40;;;;;;;;;;5052541;28;20211;-25
2023/05/14 10:22:37;;;;;;;6.03;4.60;;;;;;;;;;5046069;28;20213;-26
2023/05/14 10:25:15;;;;;;;4.83;3.93;;;;;;;;;;5045343;28;20225;-27
2023/05/14 10:27:48;;;;;;;4.97;4.57;;;;;;;;;;5050200;28;20294;-25
2023/05/14 10:30:31;;;;;;;4.20;3.80;;;;;;;;;;5039178;28;20195;-29
2023/05/14 10:33:46;;;;;;;5.40;3.73;;;;;;;;;;5045921;28;20265;-28
2023/05/14 10:36:25;;;;;;;4.10;3.70;;;;;;;;;;5030270;28;20236;-27
2023/05/14 10:39:00;;;;;;;4.67;3.57;;;;;;;;;;5026462;28;20206;-28
2023/05/14 10:47:39;;;;;;;3.00;2.80;;;;;;;;;;5037952;28;20275;-27
2023/05/14 10:50:27;;;;;;;3.13;2.90;;;;;;;;;;5040704;28;20206;-27
2023/05/14 10:56:05;;;;;;;3.43;3.13;;;;;;;;;;5023956;28;20254;-29
2023/05/14 10:58:53;;;;;;;3.50;2.30;;;;;;;;;;5052691;28;20204;-28
2023/05/14 11:01:24;;;;;;;2.57;2.37;;;;;;;;;;5032734;28;20202;-29
2023/05/14 11:04:05;;;;;;;3.17;2.30;;;;;;;;;;5047257;28;20217;-28
2023/05/14 11:06:42;;;;;;;4.50;2.57;;;;;;;;;;5033123;28;20226;-28
2023/05/14 11:09:19;;;;;;;3.20;2.77;;;;;;;;;;5031704;28;20210;-26
2023/05/14 11:19:38;;;;;;;3.77;3.10;;;;;;;;;;5062213;28;20209;-30
2023/05/14 11:22:12;;;;;;;3.37;3.07;;;;;;;;;;5076439;28;20272;-28
2023/05/14 11:24:43;;;;;;;3.13;2.93;;;;;;;;;;5055150;28;20206;-28
2023/05/14 11:27:15;;;;;;;2.97;2.77;;;;;;;;;;5064489;28;20252;-32
2023/05/14 11:32:25;;;;;;;3.63;3.03;;;;;;;;;;5052504;28;20222;-29
2023/05/14 11:35:02;;;;;;;2.97;2.30;;;;;;;;;;5073829;28;20224;-30
2023/05/14 11:37:37;;;;;;;2.53;2.33;;;;;;;;;;5076905;28;20186;-31
2023/05/14 11:40:20;;;;;;;2.50;2.30;;;;;;;;;;5038476;28;20200;-29
2023/05/14 11:43:05;;;;;;;2.63;2.43;;;;;;;;;;5061666;28;20202;-31
2023/05/14 11:45:38;;;;;;;3.47;2.50;;;;;;;;;;5054792;28;20213;-28
2023/05/14 11:48:16;;;;;;;2.77;2.57;;;;;;;;;;5054563;28;20206;-29
2023/05/14 11:51:01;;;;;;;3.43;2.37;;;;;;;;;;5072945;28;20683;-30
2023/05/14 11:58:50;;;;;;;2.50;2.30;;;;;;;;;;5088762;28;20354;-27
2023/05/14 12:01:21;;;;;;;3.67;2.40;;;;;;;;;;5077490;28;20203;-27
2023/05/14 12:04:00;;;;;;;2.93;2.70;;;;;;;;;;5082729;28;20200;-27
2023/05/14 12:09:08;;;;;;;2.60;2.40;;;;;;;;;;5032582;28;20230;-33
2023/05/14 12:11:48;;;;;;;2.97;2.67;;;;;;;;;;5031818;28;20623;-27
2023/05/14 12:14:28;;;;;;;2.60;2.40;;;;;;;;;;5033407;28;20202;-27
2023/05/14 12:22:07;;;;;;;3.67;2.50;;;;;;;;;;5054203;28;20237;-28
2023/05/14 12:24:42;;;;;;;2.87;2.53;;;;;;;;;;5061455;28;20223;-30
2023/05/14 12:27:16;;;;;;;2.77;2.57;;;;;;;;;;5062822;28;20221;-31
2023/05/14 12:29:52;;;;;;;3.20;2.90;;;;;;;;;;5054245;28;20209;-30
2023/05/14 12:32:22;;;;;;;2.80;2.60;;;;;;;;;;5060292;28;20205;-30
2023/05/14 12:34:52;;;;;;;2.83;2.63;;;;;;;;;;5072999;28;20244;-28
2023/05/14 12:37:32;;;;;;;2.70;2.50;;;;;;;;;;5075701;28;20592;-28
2023/05/14 12:40:09;;;;;;;3.00;2.73;;;;;;;;;;5062419;28;20214;-28
2023/05/14 12:42:44;;;;;;;2.47;2.27;;;;;;;;;;5040203;28;20602;-32
2023/05/14 12:45:14;;;;;;;2.77;2.57;;;;;;;;;;5047841;28;20220;-30
2023/05/14 12:47:50;;;;;;;2.87;2.60;;;;;;;;;;5052726;28;20210;-31
2023/05/14 12:50:18;;;;;;;2.70;2.50;;;;;;;;;;5054631;28;20205;-32
2023/05/14 12:52:45;;;;;;;3.20;2.50;;;;;;;;;;5311668;22;20284;-33
2023/05/14 12:55:13;;;;;;;2.80;2.60;;;;;;;;;;5054092;28;20229;-32
2023/05/14 12:57:41;;;;;;;2.63;2.43;;;;;;;;;;5056119;28;20201;-30
2023/05/14 13:00:10;;;;;;;2.20;2.10;;;;;;;;;;5061822;28;20204;-34
2023/05/14 13:02:37;;;;;;;2.53;2.33;;;;;;;;;;5060684;28;20202;-31
2023/05/14 13:05:04;;;;;;;2.57;2.37;;;;;;;;;;5058776;28;20241;-33
2023/05/14 13:07:31;;;;;;;2.60;2.40;;;;;;;;;;5046783;28;20573;-32
2023/05/14 13:09:59;;;;;;;2.73;2.53;;;;;;;;;;5042215;28;20302;-33
2023/05/14 13:12:28;;;;;;;2.80;2.50;;;;;;;;;;5065035;28;20683;-30
2023/05/14 13:14:55;;;;;;;3.03;2.77;;;;;;;;;;5060467;28;20206;-33
2023/05/14 13:17:22;;;;;;;2.07;1.97;;;;;;;;;;5044388;28;20663;-33
2023/05/14 13:19:49;;;;;;;2.27;2.07;;;;;;;;;;5068395;28;20201;-29
2023/05/14 13:22:17;;;;;;;2.60;2.40;;;;;;;;;;5063709;28;20221;-33
2023/05/14 13:24:45;;;;;;;1.97;1.87;;;;;;;;;;5043814;28;20207;-33
2023/05/14 13:27:12;;;;;;;2.97;2.30;;;;;;;;;;5050034;28;20252;-34
2023/05/14 13:29:41;;;;;;;2.80;2.60;;;;;;;;;;5047245;28;20208;-33
2023/05/14 13:32:08;;;;;;;2.67;2.47;;;;;;;;;;5049387;28;20205;-33
2023/05/14 13:34:35;;;;;;;2.23;2.10;;;;;;;;;;5057824;28;20203;-32
2023/05/14 13:37:02;;;;;;;2.50;1.90;;;;;;;;;;5049615;28;20229;-32
2023/05/14 13:39:29;;;;;;;2.37;2.17;;;;;;;;;;5045206;28;20223;-34
2023/05/14 13:41:56;;;;;;;2.10;1.90;;;;;;;;;;5045755;28;20203;-32
2023/05/14 13:44:23;;;;;;;2.10;2.00;;;;;;;;;;5066586;28;20201;-32
2023/05/14 13:46:52;;;;;;;2.47;2.27;;;;;;;;;;5051835;28;20237;-33
2023/05/14 13:49:20;;;;;;;2.20;2.00;;;;;;;;;;5056210;28;20637;-30
2023/05/14 13:51:47;;;;;;;6.13;2.07;;;;;;;;;;5050022;28;20427;-31
2023/05/14 13:54:14;;;;;;;2.20;2.10;;;;;;;;;;5040712;28;20217;-34
2023/05/14 13:56:41;;;;;;;3.17;2.10;;;;;;;;;;5057386;28;20319;-31
2023/05/14 13:59:08;;;;;;;2.40;2.20;;;;;;;;;;5062265;28;20197;-29
2023/05/14 14:01:35;;;;;;;2.47;2.17;;;;;;;;;;5045423;28;20205;-32
2023/05/14 14:04:03;;;;;;;2.20;2.10;;;;;;;;;;5048851;28;20213;-32
2023/05/14 14:06:32;;;;;;;2.13;1.97;;;;;;;;;;5049892;28;20225;-33
2023/05/14 14:08:59;;;;;;;2.40;2.20;;;;;;;;;;5046637;28;20213;-33
2023/05/14 14:11:26;;;;;;;1.80;1.70;;;;;;;;;;5037446;28;20215;-31
2023/05/14 14:13:53;;;;;;;3.00;2.07;;;;;;;;;;5049916;28;20209;-31
2023/05/14 14:16:20;;;;;;;2.27;2.10;;;;;;;;;;5047846;28;20222;-33
2023/05/14 14:18:47;;;;;;;1.43;1.40;;;;;;;;;;5058588;28;20205;-33
2023/05/14 14:21:16;;;;;;;2.80;1.80;;;;;;;;;;5069324;28;20210;-33
2023/05/14 14:23:44;;;;;;;2.03;1.80;;;;;;;;;;5046896;28;20206;-32
2023/05/14 14:26:11;;;;;;;2.33;1.80;;;;;;;;;;5048683;28;20275;-32
2023/05/14 14:28:39;;;;;;;2.47;1.90;;;;;;;;;;5065939;28;20208;-32
2023/05/14 14:31:06;;;;;;;1.80;1.70;;;;;;;;;;5050926;28;20206;-32
2023/05/14 14:33:33;;;;;;;1.90;1.80;;;;;;;;;;5058428;28;20206;-34
2023/05/14 14:36:00;;;;;;;1.57;1.47;;;;;;;;;;5068632;28;20222;-32
2023/05/14 14:38:28;;;;;;;2.10;2.00;;;;;;;;;;5054532;28;20204;-34
2023/05/14 14:40:55;;;;;;;2.40;1.90;;;;;;;;;;5047745;28;20399;-35
2023/05/14 14:43:23;;;;;;;2.07;1.90;;;;;;;;;;5063282;28;20212;-32
2023/05/14 14:45:50;;;;;;;2.00;1.90;;;;;;;;;;5050997;28;20222;-33
2023/05/14 14:48:24;;;;;;;2.77;2.10;;;;;;;;;;5060808;28;20212;-31
2023/05/14 14:50:51;;;;;;;2.53;2.33;;;;;;;;;;5072957;28;20200;-33
2023/05/14 14:53:18;;;;;;;2.13;2.00;;;;;;;;;;5066965;28;20381;-34
2023/05/14 14:55:47;;;;;;;4.10;1.90;;;;;;;;;;5051561;28;20271;-33
2023/05/14 14:58:15;;;;;;;2.47;2.37;;;;;;;;;;5066147;28;20194;-32
2023/05/14 15:00:42;;;;;;;2.60;2.40;;;;;;;;;;5052601;28;20625;-32
2023/05/14 15:03:09;;;;;;;3.00;2.80;;;;;;;;;;5069597;28;20208;-33
2023/05/14 15:05:36;;;;;;;2.60;2.40;;;;;;;;;;5072225;28;20243;-31
2023/05/14 15:08:03;;;;;;;3.03;2.10;;;;;;;;;;5063542;28;20217;-31
2023/05/14 15:10:31;;;;;;;2.40;2.20;;;;;;;;;;5041680;28;20202;-31
2023/05/14 15:13:00;;;;;;;2.57;2.37;;;;;;;;;;5070758;28;20211;-31
2023/05/14 15:15:27;;;;;;;2.70;2.50;;;;;;;;;;5055498;28;20223;-34
2023/05/14 15:17:54;;;;;;;3.60;2.37;;;;;;;;;;5069408;28;20240;-35
2023/05/14 15:20:21;;;;;;;2.40;2.20;;;;;;;;;;5072664;28;20212;-34
2023/05/14 15:22:51;;;;;;;2.57;2.37;;;;;;;;;;5061197;28;20202;-34
2023/05/14 15:25:18;;;;;;;2.10;2.00;;;;;;;;;;5045814;28;20226;-30
2023/05/14 15:27:45;;;;;;;2.23;2.13;;;;;;;;;;5052545;28;20205;-32
2023/05/14 15:30:14;;;;;;;2.50;2.30;;;;;;;;;;5048374;28;20325;-33
2023/05/14 15:32:42;;;;;;;2.70;2.50;;;;;;;;;;5064392;28;20217;-28
2023/05/14 15:35:09;;;;;;;2.63;2.43;;;;;;;;;;5052223;28;20229;-35
2023/05/14 15:37:37;;;;;;;2.50;2.30;;;;;;;;;;5052074;28;20234;-34
2023/05/14 15:40:06;;;;;;;2.47;2.30;;;;;;;;;;5046798;28;20212;-31
2023/05/14 15:42:33;;;;;;;2.50;2.30;;;;;;;;;;5067792;28;20212;-34
2023/05/14 15:45:00;;;;;;;2.63;2.43;;;;;;;;;;5063141;28;20568;-34
2023/05/14 15:47:29;;;;;;;4.57;2.40;;;;;;;;;;5060857;28;20229;-35
2023/05/14 15:49:56;;;;;;;2.10;2.00;;;;;;;;;;5053128;28;20213;-33
2023/05/14 15:52:23;;;;;;;2.67;2.13;;;;;;;;;;5051988;28;20687;-33
2023/05/14 15:54:50;;;;;;;2.47;2.37;;;;;;;;;;5048198;28;20210;-30
2023/05/14 15:57:17;;;;;;;3.30;2.60;;;;;;;;;;5056318;28;20217;-30
2023/05/14 15:59:45;;;;;;;2.50;2.30;;;;;;;;;;5052664;28;20211;-32
2023/05/14 16:02:12;;;;;;;2.93;2.40;;;;;;;;;;5056028;28;20202;-33
2023/05/14 16:04:40;;;;;;;2.60;2.40;;;;;;;;;;5054777;28;20659;-33
2023/05/14 16:07:09;;;;;;;2.20;2.10;;;;;;;;;;5052392;28;20222;-32
2023/05/14 16:09:36;;;;;;;2.30;2.20;;;;;;;;;;5053785;28;20358;-33
2023/05/14 16:12:03;;;;;;;2.33;2.13;;;;;;;;;;5067524;28;20194;-32